createdAt,value
2022-11-29T00:00:20.593Z,5.97
2022-11-29T00:01:25.346Z,5.60
2022-11-29T00:02:28.245Z,6.10
2022-11-29T00:03:30.768Z,5.78
2022-11-29T00:04:35.110Z,5.65
2022-11-29T00:05:37.032Z,5.68
2022-11-29T00:06:39.914Z,5.65
2022-11-29T00:07:41.603Z,5.15
2022-11-29T00:08:44.703Z,5.43
2022-11-29T00:09:46.431Z,6.07
2022-11-29T00:10:49.234Z,5.85
2022-11-29T00:12:09.554Z,6.10
2022-11-29T00:13:11.266Z,5.43
2022-11-29T00:14:16.104Z,5.45
2022-11-29T00:15:18.880Z,5.57
2022-11-29T00:16:20.607Z,5.07
2022-11-29T00:17:23.330Z,5.32
2022-11-29T00:18:25.017Z,5.47
2022-11-29T00:19:27.726Z,6.10
2022-11-29T00:20:31.454Z,4.88
2022-11-29T00:21:34.308Z,5.30
2022-11-29T00:22:37.104Z,5.78
2022-11-29T00:23:38.772Z,5.35
2022-11-29T00:24:43.008Z,4.72
2022-11-29T00:25:44.898Z,5.40
2022-11-29T00:26:47.992Z,5.50
2022-11-29T00:27:51.326Z,5.20
2022-11-29T00:28:54.096Z,5.60
2022-11-29T00:29:55.779Z,5.32
2022-11-29T00:30:58.535Z,5.57
2022-11-29T00:32:01.602Z,5.30
2022-11-29T00:33:04.515Z,5.18
2022-11-29T00:34:07.963Z,5.55
2022-11-29T00:35:10.014Z,5.20
2022-11-29T00:36:14.499Z,5.22
2022-11-29T00:37:16.170Z,5.20
2022-11-29T00:38:18.877Z,6.15
2022-11-29T00:39:20.562Z,5.60
2022-11-29T00:40:23.236Z,5.20
2022-11-29T00:41:25.280Z,5.43
2022-11-29T00:42:27.991Z,5.55
2022-11-29T00:43:29.622Z,5.90
2022-11-29T00:44:32.370Z,5.70
2022-11-29T00:45:34.095Z,5.60
2022-11-29T00:46:37.157Z,5.45
2022-11-29T00:47:38.815Z,5.60
2022-11-29T00:48:41.519Z,4.85
2022-11-29T00:49:44.201Z,5.22
2022-11-29T00:50:45.916Z,5.20
2022-11-29T00:51:50.057Z,5.65
2022-11-29T00:52:51.709Z,5.40
2022-11-29T00:53:54.396Z,4.97
2022-11-29T00:54:56.041Z,5.65
2022-11-29T00:55:58.976Z,5.25
2022-11-29T00:57:00.752Z,5.70
2022-11-29T00:58:03.581Z,5.60
2022-11-29T00:59:05.309Z,5.50
2022-11-29T01:00:09.214Z,5.38
2022-11-29T01:01:11.724Z,5.25
2022-11-29T01:02:14.545Z,5.60
2022-11-29T01:03:16.882Z,5.72
2022-11-29T01:04:20.103Z,5.70
2022-11-29T01:05:21.826Z,4.95
2022-11-29T01:06:24.571Z,5.72
2022-11-29T01:07:27.731Z,5.28
2022-11-29T01:08:30.419Z,5.68
2022-11-29T01:09:32.076Z,5.15
2022-11-29T01:10:34.735Z,5.07
2022-11-29T01:11:36.478Z,5.63
2022-11-29T01:12:40.042Z,5.70
2022-11-29T01:13:42.452Z,5.05
2022-11-29T01:14:45.435Z,5.18
2022-11-29T01:15:55.514Z,5.85
2022-11-29T01:16:58.286Z,5.15
2022-11-29T01:17:59.998Z,5.72
2022-11-29T01:19:02.843Z,5.93
2022-11-29T01:20:07.207Z,5.25
2022-11-29T01:21:12.027Z,5.22
2022-11-29T01:22:13.671Z,5.38
2022-11-29T01:23:17.697Z,5.57
2022-11-29T01:24:19.445Z,5.35
2022-11-29T01:25:22.248Z,5.68
2022-11-29T01:26:25.724Z,5.85
2022-11-29T01:27:28.381Z,5.93
2022-11-29T01:28:30.185Z,5.43
2022-11-29T01:29:32.896Z,5.47
2022-11-29T01:30:34.622Z,5.13
2022-11-29T01:31:37.295Z,5.43
2022-11-29T01:32:39.080Z,5.40
2022-11-29T01:33:42.312Z,5.43
2022-11-29T01:34:44.359Z,6.03
2022-11-29T01:35:51.066Z,5.88
2022-11-29T01:36:53.808Z,5.43
2022-11-29T01:37:55.500Z,5.43
2022-11-29T01:39:02.250Z,5.55
2022-11-29T01:40:05.294Z,5.22
2022-11-29T01:41:16.952Z,5.93
2022-11-29T01:42:18.712Z,5.32
2022-11-29T01:43:21.588Z,5.03
2022-11-29T01:45:01.131Z,5.40
2022-11-29T01:46:03.865Z,4.97
2022-11-29T01:47:05.956Z,5.07
2022-11-29T01:48:09.174Z,5.18
2022-11-29T01:49:13.537Z,5.15
2022-11-29T01:50:16.304Z,5.35
2022-11-29T01:51:18.461Z,5.00
2022-11-29T01:52:24.103Z,5.43
2022-11-29T01:53:26.149Z,5.35
2022-11-29T01:54:31.799Z,5.72
2022-11-29T01:55:33.703Z,4.70
2022-11-29T01:56:37.403Z,5.13
2022-11-29T01:57:40.713Z,5.28
2022-11-29T01:58:44.073Z,4.63
2022-11-29T01:59:48.258Z,5.28
2022-11-29T02:00:51.047Z,5.53
2022-11-29T02:01:53.038Z,4.97
2022-11-29T02:02:59.557Z,5.75
2022-11-29T02:04:01.494Z,5.63
2022-11-29T02:05:06.123Z,4.78
2022-11-29T02:06:08.103Z,5.10
2022-11-29T02:07:10.797Z,4.90
2022-11-29T02:08:14.771Z,5.43
2022-11-29T02:09:19.599Z,4.95
2022-11-29T02:10:28.391Z,4.80
2022-11-29T02:11:45.468Z,4.80
2022-11-29T02:12:56.389Z,5.25
2022-11-29T02:14:09.410Z,4.93
2022-11-29T02:15:22.539Z,4.88
2022-11-29T02:16:29.597Z,5.03
2022-11-29T02:17:39.570Z,5.32
2022-11-29T02:18:51.572Z,5.18
2022-11-29T02:20:26.116Z,4.70
2022-11-29T02:21:34.540Z,5.20
2022-11-29T02:22:38.773Z,5.00
2022-11-29T02:23:57.397Z,5.35
2022-11-29T02:25:12.250Z,5.20
2022-11-29T02:26:24.454Z,5.22
2022-11-29T02:27:43.590Z,5.32
2022-11-29T02:29:09.724Z,4.97
2022-11-29T02:30:20.113Z,5.13
2022-11-29T02:31:38.318Z,5.10
2022-11-29T02:33:19.671Z,4.70
2022-11-29T02:34:48.266Z,4.85
2022-11-29T02:36:12.678Z,5.00
2022-11-29T02:37:28.228Z,5.10
2022-11-29T02:38:47.871Z,4.93
2022-11-29T02:40:01.955Z,4.45
2022-11-29T02:41:28.008Z,5.55
2022-11-29T02:42:56.068Z,5.63
2022-11-29T02:44:12.629Z,4.90
2022-11-29T02:45:24.051Z,5.82
2022-11-29T02:46:51.649Z,5.15
2022-11-29T02:48:01.125Z,4.75
2022-11-29T02:49:09.691Z,4.85
2022-11-29T02:50:21.278Z,4.95
2022-11-29T02:51:27.995Z,5.68
2022-11-29T02:52:38.373Z,5.00
2022-11-29T02:53:45.119Z,5.35
2022-11-29T02:54:53.672Z,5.43
2022-11-29T02:56:01.784Z,5.20
2022-11-29T02:57:10.216Z,4.93
2022-11-29T02:58:18.150Z,5.18
2022-11-29T02:59:33.657Z,4.90
2022-11-29T03:00:36.083Z,5.22
2022-11-29T03:01:45.737Z,4.95
2022-11-29T03:02:50.020Z,5.38
2022-11-29T03:03:57.374Z,5.20
2022-11-29T03:05:03.834Z,4.70
2022-11-29T03:06:16.397Z,5.10
2022-11-29T03:07:26.685Z,5.32
2022-11-29T03:08:33.908Z,6.00
2022-11-29T03:09:40.212Z,4.72
2022-11-29T03:10:51.644Z,5.22
2022-11-29T03:11:58.991Z,5.07
2022-11-29T03:13:04.219Z,5.55
2022-11-29T03:14:14.872Z,5.20
2022-11-29T03:15:26.288Z,5.22
2022-11-29T03:16:37.091Z,5.30
2022-11-29T03:17:53.174Z,5.07
2022-11-29T03:19:05.462Z,5.40
2022-11-29T03:20:20.920Z,5.15
2022-11-29T03:21:32.077Z,5.43
2022-11-29T03:22:44.463Z,5.30
2022-11-29T03:23:48.738Z,5.03
2022-11-29T03:25:02.289Z,5.18
2022-11-29T03:26:09.529Z,5.53
2022-11-29T03:27:14.390Z,5.68
2022-11-29T03:28:19.646Z,5.15
2022-11-29T03:29:27.508Z,4.97
2022-11-29T03:30:29.756Z,5.20
2022-11-29T03:31:36.114Z,4.85
2022-11-29T03:32:45.168Z,5.07
2022-11-29T03:33:52.872Z,5.22
2022-11-29T03:35:00.086Z,5.90
2022-11-29T03:36:07.055Z,5.15
2022-11-29T03:37:15.406Z,5.25
2022-11-29T03:38:23.051Z,4.93
2022-11-29T03:39:30.291Z,4.78
2022-11-29T03:40:40.199Z,4.80
2022-11-29T03:41:47.083Z,4.22
2022-11-29T03:42:53.423Z,4.88
2022-11-29T03:43:58.004Z,4.68
2022-11-29T03:45:05.145Z,5.35
2022-11-29T03:46:10.255Z,4.50
2022-11-29T03:47:15.574Z,5.25
2022-11-29T03:48:21.127Z,4.80
2022-11-29T03:49:27.250Z,5.00
2022-11-29T03:50:33.556Z,4.82
2022-11-29T03:51:48.372Z,4.88
2022-11-29T03:52:54.258Z,4.93
2022-11-29T03:53:59.451Z,5.22
2022-11-29T03:55:12.418Z,4.95
2022-11-29T03:56:29.652Z,4.72
2022-11-29T03:57:35.703Z,4.93
2022-11-29T03:58:47.427Z,4.82
2022-11-29T03:59:55.696Z,4.38
2022-11-29T04:01:26.832Z,4.85
2022-11-29T04:02:40.995Z,4.78
2022-11-29T04:04:02.330Z,4.85
2022-11-29T04:05:42.773Z,4.35
2022-11-29T04:06:55.958Z,4.32
2022-11-29T04:08:11.961Z,5.00
2022-11-29T04:09:25.836Z,4.60
2022-11-29T04:10:41.388Z,4.88
2022-11-29T04:12:06.387Z,4.70
2022-11-29T04:13:37.007Z,4.15
2022-11-29T04:14:58.011Z,4.78
2022-11-29T04:16:28.466Z,5.15
2022-11-29T04:17:45.771Z,4.80
2022-11-29T04:19:06.895Z,4.75
2022-11-29T04:20:50.815Z,4.53
2022-11-29T04:22:10.748Z,4.60
2022-11-29T04:23:33.143Z,4.35
2022-11-29T04:25:09.054Z,4.57
2022-11-29T04:26:38.484Z,4.70
2022-11-29T04:27:49.755Z,4.43
2022-11-29T04:29:11.230Z,4.88
2022-11-29T04:30:17.732Z,4.60
2022-11-29T04:31:29.194Z,4.97
2022-11-29T04:32:51.663Z,4.80
2022-11-29T04:34:20.657Z,4.45
2022-11-29T04:35:32.983Z,4.38
2022-11-29T04:36:51.513Z,4.07
2022-11-29T04:38:29.656Z,5.15
2022-11-29T04:39:50.431Z,4.55
2022-11-29T04:41:09.491Z,4.72
2022-11-29T04:42:29.302Z,5.10
2022-11-29T04:43:52.517Z,4.32
2022-11-29T04:45:19.794Z,4.68
2022-11-29T04:46:36.735Z,4.40
2022-11-29T04:47:49.421Z,4.70
2022-11-29T04:49:16.524Z,5.07
2022-11-29T04:50:28.931Z,4.93
2022-11-29T04:51:50.161Z,4.70
2022-11-29T04:53:11.615Z,4.65
2022-11-29T04:54:21.573Z,5.30
2022-11-29T04:55:35.233Z,4.72
2022-11-29T04:56:41.229Z,5.13
2022-11-29T04:57:46.560Z,4.30
2022-11-29T04:58:54.374Z,4.70
2022-11-29T05:00:00.231Z,4.90
2022-11-29T05:01:08.438Z,4.25
2022-11-29T05:02:17.676Z,5.20
2022-11-29T05:03:26.824Z,4.85
2022-11-29T05:04:33.159Z,4.72
2022-11-29T05:05:41.304Z,4.60
2022-11-29T05:06:49.326Z,4.35
2022-11-29T05:07:58.183Z,4.50
2022-11-29T05:09:07.719Z,4.72
2022-11-29T05:10:20.724Z,5.25
2022-11-29T05:11:33.942Z,5.10
2022-11-29T05:12:40.770Z,4.78
2022-11-29T05:13:48.513Z,4.75
2022-11-29T05:15:01.951Z,4.75
2022-11-29T05:16:24.437Z,4.63
2022-11-29T05:17:33.284Z,4.35
2022-11-29T05:18:55.603Z,4.85
2022-11-29T05:20:05.797Z,4.60
2022-11-29T05:21:14.096Z,4.82
2022-11-29T05:22:28.419Z,4.90
2022-11-29T05:23:38.355Z,4.90
2022-11-29T05:24:52.626Z,3.83
2022-11-29T05:26:01.088Z,4.22
2022-11-29T05:27:10.878Z,5.05
2022-11-29T05:28:17.956Z,5.13
2022-11-29T05:29:24.772Z,5.10
2022-11-29T05:30:33.809Z,5.05
2022-11-29T05:31:55.843Z,4.78
2022-11-29T05:33:04.829Z,4.47
2022-11-29T05:34:22.169Z,4.63
2022-11-29T05:35:41.183Z,4.38
2022-11-29T05:36:50.538Z,4.20
2022-11-29T05:37:54.744Z,4.20
2022-11-29T05:39:08.780Z,4.55
2022-11-29T05:40:44.817Z,4.57
2022-11-29T05:41:57.999Z,4.90
2022-11-29T05:43:13.914Z,4.13
2022-11-29T05:44:20.867Z,4.93
2022-11-29T05:45:25.552Z,5.10
2022-11-29T05:46:32.339Z,4.65
2022-11-29T05:47:37.814Z,4.57
2022-11-29T05:48:46.696Z,4.65
2022-11-29T05:49:54.256Z,4.53
2022-11-29T05:51:07.052Z,4.75
2022-11-29T05:52:25.448Z,4.30
2022-11-29T05:53:30.449Z,4.78
2022-11-29T05:54:36.151Z,5.15
2022-11-29T05:55:43.195Z,4.75
2022-11-29T05:56:51.022Z,4.72
2022-11-29T05:57:57.076Z,4.65
2022-11-29T05:59:05.191Z,4.47
2022-11-29T06:00:11.196Z,5.20
2022-11-29T06:01:18.905Z,5.43
2022-11-29T06:02:29.989Z,5.18
2022-11-29T06:03:36.321Z,4.95
2022-11-29T06:04:51.099Z,4.45
2022-11-29T06:05:57.381Z,4.97
2022-11-29T06:07:03.779Z,4.63
2022-11-29T06:08:11.890Z,4.97
2022-11-29T06:09:17.670Z,5.05
2022-11-29T06:10:22.860Z,5.72
2022-11-29T06:11:27.390Z,5.75
2022-11-29T06:12:34.932Z,5.28
2022-11-29T06:13:50.993Z,5.68
2022-11-29T06:15:25.554Z,5.50
2022-11-29T06:16:43.933Z,5.47
2022-11-29T06:18:03.690Z,6.18
2022-11-29T06:19:23.435Z,5.85
2022-11-29T06:20:35.166Z,5.53
2022-11-29T06:21:40.874Z,6.07
2022-11-29T06:22:54.090Z,5.72
2022-11-29T06:24:25.507Z,5.97
2022-11-29T06:25:39.491Z,5.72
2022-11-29T06:27:02.228Z,5.75
2022-11-29T06:28:22.656Z,5.65
2022-11-29T06:29:30.139Z,6.35
2022-11-29T06:30:42.063Z,5.60
2022-11-29T06:31:47.011Z,5.93
2022-11-29T06:32:54.381Z,5.85
2022-11-29T06:34:00.516Z,6.07
2022-11-29T06:35:05.353Z,6.57
2022-11-29T06:36:14.597Z,6.22
2022-11-29T06:37:22.017Z,5.55
2022-11-29T06:38:26.187Z,5.50
2022-11-29T06:39:29.286Z,6.43
2022-11-29T06:40:31.524Z,6.18
2022-11-29T06:41:34.758Z,6.00
2022-11-29T06:42:36.426Z,6.18
2022-11-29T06:43:39.583Z,6.88
2022-11-29T06:44:43.180Z,5.82
2022-11-29T06:45:49.299Z,7.00
2022-11-29T06:46:57.870Z,6.07
2022-11-29T06:48:03.448Z,5.90
2022-11-29T06:49:10.537Z,6.10
2022-11-29T06:50:29.220Z,5.78
2022-11-29T06:51:34.274Z,5.88
2022-11-29T06:52:42.668Z,5.45
2022-11-29T06:53:50.546Z,6.45
2022-11-29T06:55:07.780Z,5.32
2022-11-29T06:56:17.937Z,5.30
2022-11-29T06:57:23.378Z,6.50
2022-11-29T06:58:44.520Z,6.35
2022-11-29T06:59:57.264Z,6.45
2022-11-29T07:01:06.437Z,6.50
2022-11-29T07:02:25.645Z,6.45
2022-11-29T07:03:37.973Z,6.30
2022-11-29T07:05:00.617Z,6.20
2022-11-29T07:06:08.403Z,6.25
2022-11-29T07:07:15.657Z,6.15
2022-11-29T07:08:20.446Z,6.50
2022-11-29T07:09:26.271Z,6.20
2022-11-29T07:10:30.407Z,5.80
2022-11-29T07:11:34.105Z,5.82
2022-11-29T07:12:36.331Z,5.57
2022-11-29T07:13:39.875Z,5.72
2022-11-29T07:14:42.304Z,5.35
2022-11-29T07:15:51.695Z,5.75
2022-11-29T07:17:02.827Z,6.07
2022-11-29T07:18:18.295Z,5.78
2022-11-29T07:19:28.271Z,5.78
2022-11-29T07:20:34.776Z,5.40
2022-11-29T07:21:47.252Z,5.80
2022-11-29T07:22:58.579Z,5.78
2022-11-29T07:24:08.767Z,5.38
2022-11-29T07:25:23.228Z,6.38
2022-11-29T07:26:31.219Z,6.22
2022-11-29T07:27:39.592Z,5.47
2022-11-29T07:28:50.472Z,5.63
2022-11-29T07:30:05.149Z,4.82
2022-11-29T07:31:11.687Z,5.45
2022-11-29T07:32:21.678Z,6.25
2022-11-29T07:33:30.441Z,5.78
2022-11-29T07:34:38.200Z,6.55
2022-11-29T07:35:47.144Z,5.85
2022-11-29T07:36:55.319Z,5.95
2022-11-29T07:38:04.641Z,5.90
2022-11-29T07:39:19.161Z,6.00
2022-11-29T07:40:26.521Z,5.85
2022-11-29T07:41:35.613Z,5.75
2022-11-29T07:42:45.321Z,5.88
2022-11-29T07:43:52.351Z,6.43
2022-11-29T07:45:01.925Z,5.93
2022-11-29T07:46:03.813Z,5.82
2022-11-29T07:47:06.571Z,6.75
2022-11-29T07:48:11.067Z,6.03
2022-11-29T07:49:13.771Z,6.20
2022-11-29T07:50:17.017Z,6.45
2022-11-29T07:51:18.699Z,6.45
2022-11-29T07:52:21.564Z,6.70
2022-11-29T07:53:24.927Z,7.22
2022-11-29T07:54:27.713Z,7.45
2022-11-29T07:55:29.791Z,7.30
2022-11-29T07:56:32.457Z,6.90
2022-11-29T07:57:36.445Z,6.90
2022-11-29T07:58:39.199Z,7.05
2022-11-29T07:59:42.121Z,7.50
2022-11-29T08:00:44.815Z,7.13
2022-11-29T08:01:48.111Z,6.80
2022-11-29T08:02:50.952Z,6.30
2022-11-29T08:03:54.928Z,6.22
2022-11-29T08:04:56.812Z,6.65
2022-11-29T08:05:59.504Z,6.50
2022-11-29T08:07:03.229Z,6.28
2022-11-29T08:08:06.667Z,6.57
2022-11-29T08:09:09.314Z,6.88
2022-11-29T08:10:13.976Z,6.25
2022-11-29T08:11:16.913Z,6.13
2022-11-29T08:12:18.635Z,6.55
2022-11-29T08:13:21.738Z,6.38
2022-11-29T08:14:24.453Z,6.57
2022-11-29T08:15:26.158Z,5.93
2022-11-29T08:16:29.183Z,6.30
2022-11-29T08:17:31.858Z,6.10
2022-11-29T08:18:34.562Z,6.30
2022-11-29T08:19:37.639Z,6.03
2022-11-29T08:20:41.714Z,6.53
2022-11-29T08:21:46.840Z,6.00
2022-11-29T08:22:55.270Z,6.60
2022-11-29T08:23:57.951Z,6.53
2022-11-29T08:25:00.071Z,5.75
2022-11-29T08:26:03.264Z,5.72
2022-11-29T08:27:04.932Z,6.28
2022-11-29T08:28:07.807Z,6.00
2022-11-29T08:29:09.545Z,5.50
2022-11-29T08:30:12.667Z,6.07
2022-11-29T08:31:14.419Z,6.43
2022-11-29T08:32:17.174Z,6.03
2022-11-29T08:33:18.889Z,6.70
2022-11-29T08:34:22.249Z,5.82
2022-11-29T08:35:26.475Z,6.40
2022-11-29T08:36:29.248Z,6.45
2022-11-29T08:37:30.963Z,5.93
2022-11-29T08:38:33.853Z,5.93
2022-11-29T08:39:35.575Z,6.10
2022-11-29T08:40:38.288Z,6.43
2022-11-29T08:41:40.970Z,7.95
2022-11-29T08:42:42.726Z,7.43
2022-11-29T08:43:45.720Z,13.77
2022-11-29T08:44:48.506Z,9.95
2022-11-29T08:45:52.103Z,7.38
2022-11-29T08:47:12.561Z,6.05
2022-11-29T08:48:15.449Z,6.00
2022-11-29T08:49:17.331Z,6.00
2022-11-29T08:50:20.045Z,5.88
2022-11-29T08:51:24.056Z,6.05
2022-11-29T08:52:58.729Z,6.90
2022-11-29T08:54:01.223Z,7.10
2022-11-29T08:55:03.937Z,7.55
2022-11-29T08:56:31.909Z,6.75
2022-11-29T08:57:39.955Z,6.43
2022-11-29T08:58:43.440Z,6.15
2022-11-29T08:59:45.073Z,6.38
2022-11-29T09:00:47.979Z,6.65
2022-11-29T09:01:49.847Z,5.85
2022-11-29T09:02:52.704Z,6.20
2022-11-29T09:04:00.474Z,6.00
2022-11-29T09:05:03.164Z,5.93
2022-11-29T09:06:10.470Z,5.75
2022-11-29T09:07:16.647Z,6.43
2022-11-29T09:08:19.516Z,6.13
2022-11-29T09:09:22.172Z,5.80
2022-11-29T09:10:23.997Z,5.95
2022-11-29T09:11:27.935Z,6.75
2022-11-29T09:12:29.670Z,6.43
2022-11-29T09:13:32.331Z,6.28
2022-11-29T09:14:35.124Z,7.15
2022-11-29T09:15:38.269Z,7.15
2022-11-29T09:16:40.935Z,7.25
2022-11-29T09:17:43.834Z,6.30
2022-11-29T09:18:51.275Z,6.13
2022-11-29T09:19:54.640Z,6.25
2022-11-29T09:20:56.605Z,6.55
2022-11-29T09:21:59.604Z,6.35
2022-11-29T09:23:02.996Z,6.65
2022-11-29T09:24:07.982Z,5.80
2022-11-29T09:25:10.259Z,6.57
2022-11-29T09:26:17.625Z,6.15
2022-11-29T09:27:20.426Z,6.85
2022-11-29T09:28:22.332Z,6.65
2022-11-29T09:29:24.990Z,7.15
2022-11-29T09:30:29.846Z,6.90
2022-11-29T09:31:33.453Z,6.57
2022-11-29T09:32:36.375Z,6.32
2022-11-29T09:33:39.509Z,6.13
2022-11-29T09:34:42.907Z,7.28
2022-11-29T09:35:45.005Z,6.80
2022-11-29T09:36:48.741Z,6.35
2022-11-29T09:37:50.418Z,6.63
2022-11-29T09:38:54.476Z,6.72
2022-11-29T09:39:57.149Z,6.47
2022-11-29T09:41:03.814Z,6.70
2022-11-29T09:42:20.064Z,6.95
2022-11-29T09:43:28.315Z,7.03
2022-11-29T09:44:39.831Z,7.03
2022-11-29T09:45:43.685Z,7.28
2022-11-29T09:46:58.396Z,7.10
2022-11-29T09:48:21.033Z,7.05
2022-11-29T09:49:48.288Z,7.05
2022-11-29T09:50:55.277Z,7.03
2022-11-29T09:52:04.025Z,7.30
2022-11-29T09:53:23.899Z,7.57
2022-11-29T09:54:36.311Z,8.02
2022-11-29T09:55:53.331Z,8.18
2022-11-29T09:56:57.227Z,7.80
2022-11-29T09:58:01.313Z,7.05
2022-11-29T09:59:06.249Z,7.45
2022-11-29T10:00:16.849Z,7.90
2022-11-29T10:01:23.008Z,7.93
2022-11-29T10:02:31.993Z,8.10
2022-11-29T10:03:36.221Z,7.07
2022-11-29T10:04:42.607Z,7.05
2022-11-29T10:05:47.557Z,7.47
2022-11-29T10:06:56.489Z,6.82
2022-11-29T10:08:04.626Z,6.93
2022-11-29T10:09:09.526Z,7.60
2022-11-29T10:10:18.488Z,7.30
2022-11-29T10:11:24.066Z,6.65
2022-11-29T10:12:34.931Z,6.90
2022-11-29T10:13:36.734Z,6.75
2022-11-29T10:14:45.227Z,7.18
2022-11-29T10:15:50.797Z,7.22
2022-11-29T10:16:56.545Z,6.70
2022-11-29T10:18:02.482Z,7.93
2022-11-29T10:19:08.526Z,7.43
2022-11-29T10:20:15.499Z,7.13
2022-11-29T10:21:21.474Z,6.63
2022-11-29T10:22:28.556Z,7.22
2022-11-29T10:23:33.940Z,7.68
2022-11-29T10:24:39.336Z,7.22
2022-11-29T10:25:47.961Z,7.28
2022-11-29T10:26:50.599Z,6.68
2022-11-29T10:27:53.836Z,7.72
2022-11-29T10:28:58.001Z,7.30
2022-11-29T10:30:02.483Z,7.40
2022-11-29T10:31:17.162Z,6.60
2022-11-29T10:32:21.565Z,7.45
2022-11-29T10:33:27.045Z,7.75
2022-11-29T10:34:32.287Z,7.15
2022-11-29T10:35:34.934Z,7.50
2022-11-29T10:36:41.469Z,7.30
2022-11-29T10:38:01.421Z,7.40
2022-11-29T10:39:13.061Z,7.15
2022-11-29T10:40:19.103Z,6.90
2022-11-29T10:41:23.975Z,7.15
2022-11-29T10:42:45.887Z,7.05
2022-11-29T10:43:48.906Z,6.97
2022-11-29T10:44:50.692Z,7.55
2022-11-29T10:45:56.179Z,7.28
2022-11-29T10:47:01.089Z,7.10
2022-11-29T10:48:04.434Z,7.32
2022-11-29T10:49:13.223Z,6.70
2022-11-29T10:50:19.298Z,7.25
2022-11-29T10:51:21.959Z,7.57
2022-11-29T10:52:24.886Z,7.38
2022-11-29T10:53:30.593Z,6.93
2022-11-29T10:54:39.902Z,6.95
2022-11-29T10:55:44.294Z,7.32
2022-11-29T10:56:51.051Z,7.28
2022-11-29T10:58:11.914Z,6.97
2022-11-29T10:59:22.007Z,6.55
2022-11-29T11:00:24.923Z,6.85
2022-11-29T11:01:29.094Z,6.43
2022-11-29T11:02:32.267Z,7.05
2022-11-29T11:03:37.415Z,6.78
2022-11-29T11:04:46.644Z,6.60
2022-11-29T11:06:05.302Z,6.78
2022-11-29T11:07:07.972Z,6.93
2022-11-29T11:08:17.186Z,6.57
2022-11-29T11:09:21.482Z,6.88
2022-11-29T11:10:27.442Z,6.60
2022-11-29T11:11:32.091Z,6.53
2022-11-29T11:12:36.908Z,6.22
2022-11-29T11:13:40.824Z,7.38
2022-11-29T11:14:44.872Z,7.57
2022-11-29T11:15:46.867Z,7.00
2022-11-29T11:16:49.579Z,7.10
2022-11-29T11:18:00.409Z,6.30
2022-11-29T11:19:25.627Z,7.25
2022-11-29T11:20:29.592Z,6.75
2022-11-29T11:21:32.405Z,7.05
2022-11-29T11:22:36.134Z,6.72
2022-11-29T11:23:45.090Z,6.85
2022-11-29T11:24:47.999Z,6.65
2022-11-29T11:25:56.769Z,7.55
2022-11-29T11:26:59.870Z,7.03
2022-11-29T11:28:15.427Z,7.25
2022-11-29T11:29:20.234Z,7.70
2022-11-29T11:30:23.587Z,6.90
2022-11-29T11:31:28.723Z,6.60
2022-11-29T11:32:31.651Z,7.55
2022-11-29T11:33:35.218Z,7.18
2022-11-29T11:34:38.958Z,7.10
2022-11-29T11:35:41.075Z,7.25
2022-11-29T11:36:43.730Z,6.95
2022-11-29T11:37:57.188Z,6.88
2022-11-29T11:39:12.920Z,7.32
2022-11-29T11:40:25.892Z,7.38
2022-11-29T11:41:44.686Z,6.80
2022-11-29T11:42:47.723Z,7.80
2022-11-29T11:43:57.083Z,6.78
2022-11-29T11:45:00.459Z,6.45
2022-11-29T11:46:03.535Z,6.40
2022-11-29T11:47:07.153Z,7.28
2022-11-29T11:48:14.399Z,7.05
2022-11-29T11:49:26.653Z,7.35
2022-11-29T11:50:32.194Z,7.20
2022-11-29T11:51:34.869Z,7.60
2022-11-29T11:52:46.130Z,7.43
2022-11-29T11:53:55.965Z,7.22
2022-11-29T11:55:00.434Z,7.70
2022-11-29T11:56:05.538Z,7.25
2022-11-29T11:57:16.422Z,7.32
2022-11-29T11:58:23.111Z,7.25
2022-11-29T11:59:28.172Z,7.25
2022-11-29T12:01:02.972Z,6.95
2022-11-29T12:02:02.715Z,7.40
2022-11-29T12:03:05.173Z,7.80
2022-11-29T12:04:11.657Z,7.20
2022-11-29T12:05:16.426Z,7.75
2022-11-29T12:06:45.125Z,7.38
2022-11-29T12:09:24.110Z,7.18
2022-11-29T12:10:30.074Z,7.25
2022-11-29T12:11:38.711Z,7.93
2022-11-29T12:12:43.081Z,6.97
2022-11-29T12:13:48.017Z,6.80
2022-11-29T12:14:56.888Z,7.80
2022-11-29T12:16:01.783Z,7.25
2022-11-29T12:17:14.288Z,7.28
2022-11-29T12:18:26.019Z,7.35
2022-11-29T12:19:33.146Z,7.10
2022-11-29T12:20:40.759Z,7.15
2022-11-29T12:21:46.066Z,6.95
2022-11-29T12:23:05.078Z,7.53
2022-11-29T12:24:17.747Z,6.97
2022-11-29T12:25:23.798Z,6.50
2022-11-29T12:26:55.767Z,7.13
2022-11-29T12:27:51.265Z,6.10
2022-11-29T12:28:53.963Z,7.45
2022-11-29T12:29:57.283Z,6.82
2022-11-29T12:31:05.906Z,6.78
2022-11-29T12:32:19.241Z,7.18
2022-11-29T12:33:28.105Z,7.05
2022-11-29T12:34:43.332Z,7.25
2022-11-29T12:35:56.181Z,7.10
2022-11-29T12:37:04.336Z,7.50
2022-11-29T12:38:12.259Z,7.07
2022-11-29T12:39:33.079Z,7.70
2022-11-29T12:40:41.534Z,7.05
2022-11-29T12:41:53.624Z,6.60
2022-11-29T12:43:03.992Z,7.25
2022-11-29T12:44:15.119Z,7.47
2022-11-29T12:45:31.338Z,7.00
2022-11-29T12:46:34.234Z,8.02
2022-11-29T12:47:51.720Z,8.30
2022-11-29T12:49:01.653Z,7.40
2022-11-29T12:50:11.827Z,7.30
2022-11-29T12:51:22.479Z,7.78
2022-11-29T12:52:31.765Z,8.23
2022-11-29T12:53:46.378Z,8.68
2022-11-29T12:54:56.188Z,8.73
2022-11-29T12:56:07.691Z,8.38
2022-11-29T12:57:15.962Z,8.52
2022-11-29T12:58:29.125Z,7.60
2022-11-29T12:59:45.437Z,8.13
2022-11-29T13:01:00.097Z,7.90
2022-11-29T13:02:16.767Z,8.27
2022-11-29T13:03:25.037Z,8.00
2022-11-29T13:04:36.279Z,8.52
2022-11-29T13:05:51.513Z,7.28
2022-11-29T13:06:59.885Z,8.50
2022-11-29T13:08:11.354Z,7.80
2022-11-29T13:09:29.386Z,7.68
2022-11-29T13:10:38.287Z,7.72
2022-11-29T13:11:42.768Z,7.07
2022-11-29T13:12:47.995Z,8.00
2022-11-29T13:14:03.847Z,8.18
2022-11-29T13:15:20.005Z,8.25
2022-11-29T13:16:37.296Z,8.00
2022-11-29T13:17:43.798Z,8.40
2022-11-29T13:18:55.986Z,7.72
2022-11-29T13:20:00.937Z,7.93
2022-11-29T13:21:08.805Z,7.88
2022-11-29T13:22:17.692Z,7.90
2022-11-29T13:23:39.168Z,7.97
2022-11-29T13:24:50.692Z,7.57
2022-11-29T13:25:54.551Z,8.63
2022-11-29T13:26:57.713Z,8.82
2022-11-29T13:28:04.722Z,9.32
2022-11-29T13:29:08.437Z,8.52
2022-11-29T13:30:15.683Z,7.88
2022-11-29T13:31:21.664Z,8.10
2022-11-29T13:32:36.152Z,8.57
2022-11-29T13:33:45.822Z,9.25
2022-11-29T13:34:50.682Z,8.60
2022-11-29T13:35:58.759Z,8.30
2022-11-29T13:37:07.491Z,9.30
2022-11-29T13:38:15.020Z,8.32
2022-11-29T13:39:29.336Z,8.88
2022-11-29T13:40:37.695Z,9.43
2022-11-29T13:41:47.767Z,9.07
2022-11-29T13:42:57.605Z,8.75
2022-11-29T13:44:07.948Z,8.10
2022-11-29T13:45:17.791Z,9.40
2022-11-29T13:46:24.062Z,9.73
2022-11-29T13:47:27.246Z,9.32
2022-11-29T13:48:48.249Z,9.70
2022-11-29T13:49:58.988Z,9.68
2022-11-29T13:51:26.559Z,9.15
2022-11-29T13:52:39.162Z,9.43
2022-11-29T13:53:48.796Z,9.52
2022-11-29T13:55:05.519Z,9.88
2022-11-29T13:56:07.317Z,9.18
2022-11-29T13:57:10.752Z,9.05
2022-11-29T13:58:34.091Z,10.20
2022-11-29T13:59:42.815Z,9.40
2022-11-29T14:00:51.493Z,9.10
2022-11-29T14:01:54.764Z,10.23
2022-11-29T14:02:57.172Z,9.52
2022-11-29T14:04:06.062Z,9.20
2022-11-29T14:05:25.853Z,9.63
2022-11-29T14:06:33.644Z,9.88
2022-11-29T14:07:36.475Z,9.00
2022-11-29T14:09:16.665Z,9.85
2022-11-29T14:10:04.708Z,9.77
2022-11-29T14:11:16.731Z,9.25
2022-11-29T14:12:27.190Z,10.30
2022-11-29T14:13:33.203Z,10.13
2022-11-29T14:14:40.130Z,9.32
2022-11-29T14:15:43.332Z,9.95
2022-11-29T14:16:47.868Z,9.18
2022-11-29T14:17:53.948Z,10.00
2022-11-29T14:19:21.873Z,9.50
2022-11-29T14:20:55.480Z,9.32
2022-11-29T14:22:21.242Z,8.90
2022-11-29T14:23:35.486Z,9.35
2022-11-29T14:24:42.734Z,8.90
2022-11-29T14:26:20.582Z,9.63
2022-11-29T14:28:02.022Z,8.73
2022-11-29T14:29:42.286Z,9.35
2022-11-29T14:30:49.479Z,9.10
2022-11-29T14:31:56.189Z,8.63
2022-11-29T14:33:00.689Z,9.73
2022-11-29T14:34:09.127Z,9.48
2022-11-29T14:35:18.188Z,9.27
2022-11-29T14:36:38.381Z,8.90
2022-11-29T14:37:51.975Z,8.68
2022-11-29T14:39:01.438Z,9.13
2022-11-29T14:40:13.298Z,8.93
2022-11-29T14:41:20.947Z,8.93
2022-11-29T14:42:25.863Z,9.68
2022-11-29T14:43:31.197Z,9.00
2022-11-29T14:44:34.698Z,8.52
2022-11-29T14:45:37.580Z,8.68
2022-11-29T14:46:39.357Z,9.70
2022-11-29T14:47:49.438Z,9.82
2022-11-29T14:48:59.252Z,9.07
2022-11-29T14:50:07.496Z,9.20
2022-11-29T14:51:11.164Z,8.90
2022-11-29T14:52:21.485Z,9.85
2022-11-29T14:53:30.472Z,9.80
2022-11-29T14:54:33.426Z,8.60
2022-11-29T14:55:37.334Z,8.38
2022-11-29T14:56:42.435Z,9.20
2022-11-29T14:57:56.240Z,9.23
2022-11-29T14:59:32.354Z,9.95
2022-11-29T15:00:55.354Z,9.10
2022-11-29T15:01:58.275Z,9.18
2022-11-29T15:03:03.526Z,10.05
2022-11-29T15:04:07.361Z,9.90
2022-11-29T15:05:17.061Z,9.98
2022-11-29T15:06:26.122Z,9.52
2022-11-29T15:07:30.335Z,9.48
2022-11-29T15:08:35.829Z,9.35
2022-11-29T15:09:38.510Z,9.75
2022-11-29T15:10:44.230Z,10.98
2022-11-29T15:11:51.834Z,10.38
2022-11-29T15:12:54.736Z,10.48
2022-11-29T15:14:03.195Z,10.55
2022-11-29T15:15:13.327Z,10.60